Grove Hill, Alabama
Current Conditions -  °F | °C
As of 8:53 PM on Wednesday 22 Oct 2014 (Local Time) from KGZH Reporting Station
Clear Clear  
Wind Chill: 53°   Ceiling: Unl
Heat Index: 53°   Visibility: 10mi
Dew Point: 48°   Wind: 3mph
Humidity: 83%   Direction: 330°NNW
Pressure: 30.1"   Gusts: NA
Location:  31.71°N, 87.78°W
Report Text: KGZH 230153Z AUTO 33003KT 10SM CLR 12/09 A3010 RMK AO2 SLP191 T01170089
Loading
Personal Weather Stations






























Interactive Weather Map
Tropical Storm Tracking
New forecast layout! Learn more

10-Day Weather Forecast

Advertisements
Track Severe Weather on mobile